sensor_id;sensor_type;location;lat;lon;timestamp;pressure;altitude;pressure_sealevel;temperature;humidity
53689;BME280;39583;54.682;30.662;2024-01-15T09:09:46;96861.59;;;0.36;100.00
53689;BME280;39583;54.682;30.662;2024-01-15T09:12:14;96858.59;;;0.51;100.00
53689;BME280;39583;54.682;30.662;2024-01-15T09:14:42;96857.06;;;0.62;100.00
53689;BME280;39583;54.682;30.662;2024-01-15T09:17:10;96848.69;;;0.65;100.00
53689;BME280;39583;54.682;30.662;2024-01-15T09:19:38;96859.28;;;0.65;100.00
53689;BME280;39583;54.682;30.662;2024-01-15T09:22:07;96854.72;;;0.72;100.00
53689;BME280;39583;54.682;30.662;2024-01-15T09:24:35;96857.97;;;0.74;100.00
53689;BME280;39583;54.682;30.662;2024-01-15T09:27:03;96847.13;;;0.75;100.00
53689;BME280;39583;54.682;30.662;2024-01-15T09:29:31;96846.56;;;0.73;100.00
53689;BME280;39583;54.682;30.662;2024-01-15T09:31:59;96845.88;;;0.78;100.00
53689;BME280;39583;54.682;30.662;2024-01-15T09:34:26;96843.47;;;0.76;100.00
53689;BME280;39583;54.682;30.662;2024-01-15T09:36:54;96843.31;;;0.71;100.00
53689;BME280;39583;54.682;30.662;2024-01-15T09:39:22;96840.31;;;0.68;100.00
53689;BME280;39583;54.682;30.662;2024-01-15T09:41:50;96829.16;;;0.66;100.00
53689;BME280;39583;54.682;30.662;2024-01-15T09:44:19;96828.75;;;0.62;100.00
53689;BME280;39583;54.682;30.662;2024-01-15T09:46:47;96825.28;;;0.62;100.00
53689;BME280;39583;54.682;30.662;2024-01-15T09:49:18;96821.47;;;0.57;100.00
53689;BME280;39583;54.682;30.662;2024-01-15T09:51:47;96827.34;;;0.59;100.00
53689;BME280;39583;54.682;30.662;2024-01-15T09:54:29;96822.06;;;0.59;100.00
53689;BME280;39583;54.682;30.662;2024-01-15T09:56:56;96816.91;;;0.65;100.00
53689;BME280;39583;54.682;30.662;2024-01-15T09:59:24;96815.22;;;0.70;100.00
53689;BME280;39583;54.682;30.662;2024-01-15T10:01:53;96821.84;;;0.79;100.00
53689;BME280;39583;54.682;30.662;2024-01-15T10:04:21;96812.31;;;0.90;100.00
53689;BME280;39583;54.682;30.662;2024-01-15T10:06:51;96816.38;;;0.93;100.00
53689;BME280;39583;54.682;30.662;2024-01-15T10:09:19;96812.25;;;0.97;100.00
53689;BME280;39583;54.682;30.662;2024-01-15T10:11:47;96810.47;;;0.91;100.00
53689;BME280;39583;54.682;30.662;2024-01-15T10:14:15;96809.53;;;0.85;100.00
53689;BME280;39583;54.682;30.662;2024-01-15T10:16:42;96807.41;;;0.75;100.00
53689;BME280;39583;54.682;30.662;2024-01-15T10:19:10;96812.63;;;0.64;100.00
53689;BME280;39583;54.682;30.662;2024-01-15T10:21:38;96813.53;;;0.57;100.00
53689;BME280;39583;54.682;30.662;2024-01-15T10:24:06;96805.88;;;0.49;100.00
53689;BME280;39583;54.682;30.662;2024-01-15T10:26:34;96797.81;;;0.44;100.00
53689;BME280;39583;54.682;30.662;2024-01-15T10:29:02;96805.00;;;0.37;100.00
53689;BME280;39583;54.682;30.662;2024-01-15T10:31:30;96806.59;;;0.38;100.00
53689;BME280;39583;54.682;30.662;2024-01-15T10:34:24;96793.81;;;0.35;100.00
53689;BME280;39583;54.682;30.662;2024-01-15T10:36:52;96796.47;;;0.35;100.00
53689;BME280;39583;54.682;30.662;2024-01-15T10:39:23;96786.56;;;0.31;100.00
53689;BME280;39583;54.682;30.662;2024-01-15T10:41:50;96793.09;;;0.46;100.00
53689;BME280;39583;54.682;30.662;2024-01-15T10:44:19;96769.78;;;0.37;100.00
53689;BME280;39583;54.682;30.662;2024-01-15T10:46:50;96793.38;;;0.56;100.00
53689;BME280;39583;54.682;30.662;2024-01-15T10:49:18;96757.13;;;0.39;100.00
53689;BME280;39583;54.682;30.662;2024-01-15T10:51:47;96792.72;;;0.61;100.00
53689;BME280;39583;54.682;30.662;2024-01-15T10:54:16;96792.13;;;0.59;100.00
53689;BME280;39583;54.682;30.662;2024-01-15T10:56:45;96782.13;;;0.61;100.00
53689;BME280;39583;54.682;30.662;2024-01-15T10:59:13;96779.84;;;0.65;100.00
53689;BME280;39583;54.682;30.662;2024-01-15T11:01:42;96782.47;;;0.65;100.00
53689;BME280;39583;54.682;30.662;2024-01-15T11:04:10;96781.53;;;0.59;100.00
53689;BME280;39583;54.682;30.662;2024-01-15T11:06:44;96780.38;;;0.55;100.00
53689;BME280;39583;54.682;30.662;2024-01-15T11:09:13;96766.56;;;0.53;100.00
53689;BME280;39583;54.682;30.662;2024-01-15T11:11:44;96773.69;;;0.52;100.00
53689;BME280;39583;54.682;30.662;2024-01-15T11:14:39;96771.69;;;0.48;100.00
53689;BME280;39583;54.682;30.662;2024-01-15T11:17:07;96777.22;;;0.46;100.00
53689;BME280;39583;54.682;30.662;2024-01-15T11:19:36;96773.16;;;0.44;100.00
53689;BME280;39583;54.682;30.662;2024-01-15T11:22:07;96775.22;;;0.42;100.00
53689;BME280;39583;54.682;30.662;2024-01-15T11:24:39;96773.84;;;0.39;100.00
53689;BME280;39583;54.682;30.662;2024-01-15T11:27:08;96775.22;;;0.42;100.00
53689;BME280;39583;54.682;30.662;2024-01-15T11:29:36;96771.78;;;0.41;100.00
53689;BME280;39583;54.682;30.662;2024-01-15T11:32:08;96776.03;;;0.42;100.00
53689;BME280;39583;54.682;30.662;2024-01-15T11:34:55;96773.97;;;0.44;100.00
53689;BME280;39583;54.682;30.662;2024-01-15T11:42:48;96756.75;;;0.35;100.00
53689;BME280;39583;54.682;30.662;2024-01-15T11:45:20;96761.59;;;0.38;100.00
53689;BME280;39583;54.682;30.662;2024-01-15T11:50:15;96762.72;;;0.31;100.00
53689;BME280;39583;54.682;30.662;2024-01-15T11:52:51;96760.72;;;0.26;100.00
53689;BME280;39583;54.682;30.662;2024-01-15T11:55:34;96758.91;;;0.26;100.00
53689;BME280;39583;54.682;30.662;2024-01-15T11:58:09;96751.16;;;0.25;100.00
53689;BME280;39583;54.682;30.662;2024-01-15T12:00:44;96740.44;;;0.20;100.00
53689;BME280;39583;54.682;30.662;2024-01-15T12:03:12;96743.47;;;0.23;100.00
53689;BME280;39583;54.682;30.662;2024-01-15T12:05:40;96748.16;;;0.21;100.00
53689;BME280;39583;54.682;30.662;2024-01-15T12:08:11;96744.81;;;0.14;100.00
53689;BME280;39583;54.682;30.662;2024-01-15T12:10:42;96720.16;;;-0.05;100.00
53689;BME280;39583;54.682;30.662;2024-01-15T12:13:14;96741.03;;;0.04;100.00
53689;BME280;39583;54.682;30.662;2024-01-15T12:15:42;96740.50;;;-0.05;100.00
53689;BME280;39583;54.682;30.662;2024-01-15T12:18:15;96736.03;;;-0.05;100.00
53689;BME280;39583;54.682;30.662;2024-01-15T12:20:44;96739.13;;;-0.08;100.00
53689;BME280;39583;54.682;30.662;2024-01-15T12:23:17;96733.25;;;-0.10;100.00
53689;BME280;39583;54.682;30.662;2024-01-15T12:25:45;96741.19;;;-0.10;100.00
53689;BME280;39583;54.682;30.662;2024-01-15T12:28:14;96735.22;;;-0.05;100.00
53689;BME280;39583;54.682;30.662;2024-01-15T12:30:42;96727.22;;;0.02;100.00
53689;BME280;39583;54.682;30.662;2024-01-15T12:33:10;96739.69;;;0.13;100.00
53689;BME280;39583;54.682;30.662;2024-01-15T12:35:38;96718.69;;;0.18;100.00
53689;BME280;39583;54.682;30.662;2024-01-15T12:38:06;96721.72;;;0.21;100.00
53689;BME280;39583;54.682;30.662;2024-01-15T12:40:33;96721.56;;;0.16;100.00
53689;BME280;39583;54.682;30.662;2024-01-15T12:43:08;96714.50;;;0.10;100.00
53689;BME280;39583;54.682;30.662;2024-01-15T12:45:37;96721.13;;;0.01;100.00
53689;BME280;39583;54.682;30.662;2024-01-15T12:48:05;96714.94;;;-0.11;100.00
53689;BME280;39583;54.682;30.662;2024-01-15T12:50:33;96710.53;;;-0.17;100.00
53689;BME280;39583;54.682;30.662;2024-01-15T12:53:02;96680.19;;;-0.33;100.00
53689;BME280;39583;54.682;30.662;2024-01-15T12:55:31;96709.78;;;-0.24;100.00
53689;BME280;39583;54.682;30.662;2024-01-15T12:57:59;96693.41;;;-0.33;100.00
53689;BME280;39583;54.682;30.662;2024-01-15T13:00:27;96697.44;;;-0.31;100.00
53689;BME280;39583;54.682;30.662;2024-01-15T13:02:57;96703.97;;;-0.33;100.00
53689;BME280;39583;54.682;30.662;2024-01-15T13:05:26;96683.81;;;-0.52;100.00
53689;BME280;39583;54.682;30.662;2024-01-15T13:07:55;96689.63;;;-0.44;100.00
53689;BME280;39583;54.682;30.662;2024-01-15T13:10:22;96698.59;;;-0.45;100.00
53689;BME280;39583;54.682;30.662;2024-01-15T13:12:52;96678.50;;;-0.52;100.00
53689;BME280;39583;54.682;30.662;2024-01-15T13:15:20;96670.44;;;-0.57;100.00
53689;BME280;39583;54.682;30.662;2024-01-15T13:17:48;96672.44;;;-0.53;100.00
53689;BME280;39583;54.682;30.662;2024-01-15T13:20:15;96687.44;;;-0.47;100.00
53689;BME280;39583;54.682;30.662;2024-01-15T13:22:43;96675.88;;;-0.52;100.00
53689;BME280;39583;54.682;30.662;2024-01-15T13:25:13;96688.28;;;-0.53;100.00
53689;BME280;39583;54.682;30.662;2024-01-15T13:27:42;96587.25;;;-1.16;100.00
53689;BME280;39583;54.682;30.662;2024-01-15T13:30:11;96678.16;;;-0.56;100.00
53689;BME280;39583;54.682;30.662;2024-01-15T13:32:40;96682.63;;;-0.56;100.00
53689;BME280;39583;54.682;30.662;2024-01-15T13:35:08;96659.41;;;-0.73;100.00
53689;BME280;39583;54.682;30.662;2024-01-15T13:37:41;96583.25;;;-1.26;100.00
53689;BME280;39583;54.682;30.662;2024-01-15T13:40:10;96677.56;;;-0.58;100.00
53689;BME280;39583;54.682;30.662;2024-01-15T13:42:45;96678.00;;;-0.61;100.00
53689;BME280;39583;54.682;30.662;2024-01-15T13:45:14;96675.00;;;-0.65;100.00
53689;BME280;39583;54.682;30.662;2024-01-15T13:47:42;96678.84;;;-0.67;100.00
53689;BME280;39583;54.682;30.662;2024-01-15T13:50:13;96672.19;;;-0.70;100.00
53689;BME280;39583;54.682;30.662;2024-01-15T13:52:41;96671.38;;;-0.70;100.00
53689;BME280;39583;54.682;30.662;2024-01-15T13:55:09;96671.38;;;-0.70;100.00
53689;BME280;39583;54.682;30.662;2024-01-15T13:57:37;96669.75;;;-0.71;100.00
53689;BME280;39583;54.682;30.662;2024-01-15T14:00:05;96665.72;;;-0.74;100.00
53689;BME280;39583;54.682;30.662;2024-01-15T14:02:40;96643.72;;;-0.93;100.00
53689;BME280;39583;54.682;30.662;2024-01-15T14:05:08;96657.63;;;-0.79;100.00
53689;BME280;39583;54.682;30.662;2024-01-15T14:07:35;96663.50;;;-0.77;100.00
53689;BME280;39583;54.682;30.662;2024-01-15T14:10:03;96662.72;;;-0.77;100.00
53689;BME280;39583;54.682;30.662;2024-01-15T14:12:31;96638.03;;;-0.90;100.00
53689;BME280;39583;54.682;30.662;2024-01-15T14:15:00;96657.63;;;-0.79;100.00
53689;BME280;39583;54.682;30.662;2024-01-15T14:17:28;96659.25;;;-0.78;100.00
53689;BME280;39583;54.682;30.662;2024-01-15T14:19:56;96655.63;;;-0.83;100.00
53689;BME280;39583;54.682;30.662;2024-01-15T14:22:24;96654.59;;;-0.82;100.00
53689;BME280;39583;54.682;30.662;2024-01-15T14:24:52;96607.50;;;-1.10;100.00
53689;BME280;39583;54.682;30.662;2024-01-15T14:27:20;96664.53;;;-0.78;100.00
53689;BME280;39583;54.682;30.662;2024-01-15T14:29:48;96661.28;;;-0.80;100.00
53689;BME280;39583;54.682;30.662;2024-01-15T14:32:16;96644.81;;;-1.00;100.00
53689;BME280;39583;54.682;30.662;2024-01-15T14:34:44;96661.72;;;-0.83;100.00
53689;BME280;39583;54.682;30.662;2024-01-15T14:37:13;96669.44;;;-0.81;100.00
53689;BME280;39583;54.682;30.662;2024-01-15T14:39:41;96617.09;;;-1.16;100.00
53689;BME280;39583;54.682;30.662;2024-01-15T14:42:10;96666.09;;;-0.95;100.00
53689;BME280;39583;54.682;30.662;2024-01-15T14:44:38;96665.25;;;-0.89;100.00
53689;BME280;39583;54.682;30.662;2024-01-15T14:47:08;96677.41;;;-0.88;100.00
53689;BME280;39583;54.682;30.662;2024-01-15T14:49:35;96669.28;;;-0.86;100.00
53689;BME280;39583;54.682;30.662;2024-01-15T14:52:04;96658.53;;;-0.92;100.00
53689;BME280;39583;54.682;30.662;2024-01-15T14:54:31;96621.16;;;-1.13;100.00
53689;BME280;39583;54.682;30.662;2024-01-15T14:56:59;96632.22;;;-1.05;100.00
53689;BME280;39583;54.682;30.662;2024-01-15T14:59:26;96649.66;;;-0.97;100.00
53689;BME280;39583;54.682;30.662;2024-01-15T15:01:56;96641.78;;;-1.04;100.00
53689;BME280;39583;54.682;30.662;2024-01-15T15:04:24;96614.28;;;-1.21;100.00
53689;BME280;39583;54.682;30.662;2024-01-15T15:06:52;96664.81;;;-0.86;100.00
53689;BME280;39583;54.682;30.662;2024-01-15T15:09:20;96667.66;;;-0.87;100.00
53689;BME280;39583;54.682;30.662;2024-01-15T15:11:47;96665.81;;;-0.87;100.00
53689;BME280;39583;54.682;30.662;2024-01-15T15:14:15;96555.13;;;-1.63;100.00
53689;BME280;39583;54.682;30.662;2024-01-15T15:16:42;96610.84;;;-1.22;100.00
53689;BME280;39583;54.682;30.662;2024-01-15T15:19:10;96661.81;;;-0.96;100.00
53689;BME280;39583;54.682;30.662;2024-01-15T15:21:38;96600.81;;;-1.38;100.00
53689;BME280;39583;54.682;30.662;2024-01-15T15:24:06;96678.03;;;-0.93;100.00
53689;BME280;39583;54.682;30.662;2024-01-15T15:26:34;96670.34;;;-0.94;100.00
53689;BME280;39583;54.682;30.662;2024-01-15T15:29:01;96662.53;;;-1.07;100.00
53689;BME280;39583;54.682;30.662;2024-01-15T15:31:29;96672.84;;;-0.99;100.00
53689;BME280;39583;54.682;30.662;2024-01-15T15:33:57;96655.47;;;-1.13;100.00
53689;BME280;39583;54.682;30.662;2024-01-15T15:36:25;96665.16;;;-1.07;100.00
53689;BME280;39583;54.682;30.662;2024-01-15T15:38:53;96667.19;;;-1.03;100.00
53689;BME280;39583;54.682;30.662;2024-01-15T15:41:24;96641.28;;;-1.19;100.00
53689;BME280;39583;54.682;30.662;2024-01-15T15:43:53;96667.19;;;-1.03;100.00
53689;BME280;39583;54.682;30.662;2024-01-15T15:46:21;96658.53;;;-1.16;100.00
53689;BME280;39583;54.682;30.662;2024-01-15T15:48:49;96667.38;;;-1.04;100.00
53689;BME280;39583;54.682;30.662;2024-01-15T15:51:17;96645.13;;;-1.15;100.00
53689;BME280;39583;54.682;30.662;2024-01-15T15:53:45;96616.22;;;-1.35;100.00
53689;BME280;39583;54.682;30.662;2024-01-15T15:56:12;96663.91;;;-1.05;100.00
53689;BME280;39583;54.682;30.662;2024-01-15T15:58:40;96661.91;;;-1.03;100.00
53689;BME280;39583;54.682;30.662;2024-01-15T16:01:07;96616.00;;;-1.33;100.00
53689;BME280;39583;54.682;30.662;2024-01-15T16:03:35;96665.59;;;-1.10;100.00
53689;BME280;39583;54.682;30.662;2024-01-15T16:06:03;96658.91;;;-1.13;100.00
53689;BME280;39583;54.682;30.662;2024-01-15T16:08:31;96666.84;;;-1.13;100.00
53689;BME280;39583;54.682;30.662;2024-01-15T16:10:59;96665.66;;;-1.17;100.00
53689;BME280;39583;54.682;30.662;2024-01-15T16:13:27;96667.47;;;-1.17;100.00
53689;BME280;39583;54.682;30.662;2024-01-15T16:15:54;96664.00;;;-1.18;100.00
53689;BME280;39583;54.682;30.662;2024-01-15T16:18:42;96673.75;;;-1.19;100.00
53689;BME280;39583;54.682;30.662;2024-01-15T16:21:32;96660.78;;;-1.20;100.00
53689;BME280;39583;54.682;30.662;2024-01-15T16:24:21;96666.47;;;-1.16;100.00
53689;BME280;39583;54.682;30.662;2024-01-15T16:27:08;96663.41;;;-1.20;100.00
53689;BME280;39583;54.682;30.662;2024-01-15T16:29:39;96677.44;;;-1.20;100.00
53689;BME280;39583;54.682;30.662;2024-01-15T16:32:07;96672.38;;;-1.21;100.00
53689;BME280;39583;54.682;30.662;2024-01-15T16:34:35;96666.72;;;-1.25;100.00
53689;BME280;39583;54.682;30.662;2024-01-15T16:37:03;96665.91;;;-1.25;100.00
53689;BME280;39583;54.682;30.662;2024-01-15T16:39:31;96665.31;;;-1.27;100.00
53689;BME280;39583;54.682;30.662;2024-01-15T16:41:59;96664.72;;;-1.29;100.00
53689;BME280;39583;54.682;30.662;2024-01-15T16:44:27;96657.63;;;-1.29;100.00
53689;BME280;39583;54.682;30.662;2024-01-15T16:46:55;96628.66;;;-1.42;100.00
53689;BME280;39583;54.682;30.662;2024-01-15T16:49:31;96651.09;;;-1.26;100.00
53689;BME280;39583;54.682;30.662;2024-01-15T16:51:59;96650.28;;;-1.27;100.00
53689;BME280;39583;54.682;30.662;2024-01-15T16:54:27;96654.75;;;-1.27;100.00
53689;BME280;39583;54.682;30.662;2024-01-15T16:56:55;96652.13;;;-1.27;100.00
53689;BME280;39583;54.682;30.662;2024-01-15T16:59:23;96653.94;;;-1.28;100.00
53689;BME280;39583;54.682;30.662;2024-01-15T17:01:50;96662.69;;;-1.27;100.00
53689;BME280;39583;54.682;30.662;2024-01-15T17:04:18;96662.91;;;-1.29;100.00
53689;BME280;39583;54.682;30.662;2024-01-15T17:06:46;96626.66;;;-1.46;100.00
53689;BME280;39583;54.682;30.662;2024-01-15T17:09:13;96651.31;;;-1.28;100.00
53689;BME280;39583;54.682;30.662;2024-01-15T17:11:41;96641.56;;;-1.27;100.00
53689;BME280;39583;54.682;30.662;2024-01-15T17:14:10;96632.84;;;-1.28;100.00
53689;BME280;39583;54.682;30.662;2024-01-15T17:16:38;96642.59;;;-1.28;100.00
53689;BME280;39583;54.682;30.662;2024-01-15T17:19:06;96643.59;;;-1.29;100.00
53689;BME280;39583;54.682;30.662;2024-01-15T17:21:34;96649.03;;;-1.24;100.00
53689;BME280;39583;54.682;30.662;2024-01-15T17:24:02;96643.53;;;-1.23;100.00
53689;BME280;39583;54.682;30.662;2024-01-15T17:26:30;96646.19;;;-1.23;100.00
53689;BME280;39583;54.682;30.662;2024-01-15T17:28:58;96648.81;;;-1.23;100.00
53689;BME280;39583;54.682;30.662;2024-01-15T17:31:26;96655.13;;;-1.24;100.00
53689;BME280;39583;54.682;30.662;2024-01-15T17:33:54;96655.72;;;-1.22;100.00
53689;BME280;39583;54.682;30.662;2024-01-15T17:36:25;104039.72;;;-1.23;100.00
53689;BME280;39583;54.682;30.662;2024-01-15T17:38:53;96657.13;;;-1.19;100.00
53689;BME280;39583;54.682;30.662;2024-01-15T17:41:21;96655.28;;;-1.19;100.00
53689;BME280;39583;54.682;30.662;2024-01-15T17:43:49;96650.22;;;-1.20;100.00
53689;BME280;39583;54.682;30.662;2024-01-15T17:46:17;96650.22;;;-1.20;100.00
53689;BME280;39583;54.682;30.662;2024-01-15T17:48:47;96632.06;;;-1.35;100.00
53689;BME280;39583;54.682;30.662;2024-01-15T17:51:18;96654.69;;;-1.21;100.00
53689;BME280;39583;54.682;30.662;2024-01-15T17:53:46;96659.97;;;-1.21;100.00
53689;BME280;39583;54.682;30.662;2024-01-15T17:56:15;96651.25;;;-1.21;100.00
53689;BME280;39583;54.682;30.662;2024-01-15T17:58:43;96659.75;;;-1.19;100.00
53689;BME280;39583;54.682;30.662;2024-01-15T18:01:10;96656.91;;;-1.17;100.00
53689;BME280;39583;54.682;30.662;2024-01-15T18:03:38;96656.91;;;-1.17;100.00
53689;BME280;39583;54.682;30.662;2024-01-15T18:06:06;96662.81;;;-1.15;100.00
53689;BME280;39583;54.682;30.662;2024-01-15T18:08:34;96654.66;;;-1.14;100.00
53689;BME280;39583;54.682;30.662;2024-01-15T18:11:02;96652.84;;;-1.13;100.00
53689;BME280;39583;54.682;30.662;2024-01-15T18:13:30;96658.31;;;-1.15;100.00
53689;BME280;39583;54.682;30.662;2024-01-15T18:15:59;96646.97;;;-1.15;100.00
53689;BME280;39583;54.682;30.662;2024-01-15T18:18:27;96630.41;;;-1.29;100.00
53689;BME280;39583;54.682;30.662;2024-01-15T18:20:54;96648.19;;;-1.18;100.00
53689;BME280;39583;54.682;30.662;2024-01-15T18:23:22;96643.91;;;-1.19;100.00
